sensor_id;sensor_type;location;lat;lon;timestamp;P1;durP1;ratioP1;P2;durP2;ratioP2
37777;SDS011;23615;51.506;7.678;2022-08-07T00:00:20;1.35;;;0.20;;
37777;SDS011;23615;51.506;7.678;2022-08-07T00:02:45;1.13;;;0.28;;
37777;SDS011;23615;51.506;7.678;2022-08-07T00:05:11;0.28;;;0.20;;
37777;SDS011;23615;51.506;7.678;2022-08-07T00:07:37;0.60;;;0.30;;
37777;SDS011;23615;51.506;7.678;2022-08-07T00:10:02;0.20;;;0.20;;
37777;SDS011;23615;51.506;7.678;2022-08-07T00:12:28;0.20;;;0.20;;
37777;SDS011;23615;51.506;7.678;2022-08-07T00:14:54;1.25;;;0.40;;
37777;SDS011;23615;51.506;7.678;2022-08-07T00:17:19;0.20;;;0.20;;
37777;SDS011;23615;51.506;7.678;2022-08-07T00:19:44;0.30;;;0.30;;
37777;SDS011;23615;51.506;7.678;2022-08-07T00:22:10;0.28;;;0.28;;
37777;SDS011;23615;51.506;7.678;2022-08-07T00:24:35;0.50;;;0.30;;
37777;SDS011;23615;51.506;7.678;2022-08-07T00:27:01;0.98;;;0.50;;
37777;SDS011;23615;51.506;7.678;2022-08-07T00:29:26;0.88;;;0.30;;
37777;SDS011;23615;51.506;7.678;2022-08-07T00:31:53;0.50;;;0.30;;
37777;SDS011;23615;51.506;7.678;2022-08-07T00:34:20;1.92;;;0.30;;
37777;SDS011;23615;51.506;7.678;2022-08-07T00:36:46;0.25;;;0.20;;
37777;SDS011;23615;51.506;7.678;2022-08-07T00:39:11;1.33;;;0.38;;
37777;SDS011;23615;51.506;7.678;2022-08-07T00:41:37;0.35;;;0.30;;
37777;SDS011;23615;51.506;7.678;2022-08-07T00:44:03;0.75;;;0.40;;
37777;SDS011;23615;51.506;7.678;2022-08-07T00:46:29;0.75;;;0.40;;
37777;SDS011;23615;51.506;7.678;2022-08-07T00:48:55;0.88;;;0.28;;
37777;SDS011;23615;51.506;7.678;2022-08-07T00:51:20;0.85;;;0.30;;
37777;SDS011;23615;51.506;7.678;2022-08-07T00:53:46;1.65;;;0.40;;
37777;SDS011;23615;51.506;7.678;2022-08-07T00:56:11;0.40;;;0.40;;
37777;SDS011;23615;51.506;7.678;2022-08-07T00:58:42;0.85;;;0.40;;
37777;SDS011;23615;51.506;7.678;2022-08-07T01:01:08;0.40;;;0.30;;
37777;SDS011;23615;51.506;7.678;2022-08-07T01:03:34;0.50;;;0.45;;
37777;SDS011;23615;51.506;7.678;2022-08-07T01:05:59;0.80;;;0.40;;
37777;SDS011;23615;51.506;7.678;2022-08-07T01:08:25;0.80;;;0.30;;
37777;SDS011;23615;51.506;7.678;2022-08-07T01:10:50;0.80;;;0.30;;
37777;SDS011;23615;51.506;7.678;2022-08-07T01:13:15;0.30;;;0.30;;
37777;SDS011;23615;51.506;7.678;2022-08-07T01:15:41;0.30;;;0.30;;
37777;SDS011;23615;51.506;7.678;2022-08-07T01:18:07;0.52;;;0.52;;
37777;SDS011;23615;51.506;7.678;2022-08-07T01:20:33;0.80;;;0.40;;
37777;SDS011;23615;51.506;7.678;2022-08-07T01:23:05;0.30;;;0.20;;
37777;SDS011;23615;51.506;7.678;2022-08-07T01:25:31;0.52;;;0.20;;
37777;SDS011;23615;51.506;7.678;2022-08-07T01:27:57;0.20;;;0.20;;
37777;SDS011;23615;51.506;7.678;2022-08-07T01:30:23;0.82;;;0.20;;
37777;SDS011;23615;51.506;7.678;2022-08-07T01:32:50;1.52;;;0.30;;
37777;SDS011;23615;51.506;7.678;2022-08-07T01:35:15;0.20;;;0.20;;
37777;SDS011;23615;51.506;7.678;2022-08-07T01:37:41;0.30;;;0.30;;
37777;SDS011;23615;51.506;7.678;2022-08-07T01:40:07;0.30;;;0.30;;
37777;SDS011;23615;51.506;7.678;2022-08-07T01:42:33;0.50;;;0.38;;
37777;SDS011;23615;51.506;7.678;2022-08-07T01:44:59;0.40;;;0.32;;
37777;SDS011;23615;51.506;7.678;2022-08-07T01:47:25;1.05;;;0.60;;
37777;SDS011;23615;51.506;7.678;2022-08-07T01:49:50;0.38;;;0.32;;
37777;SDS011;23615;51.506;7.678;2022-08-07T01:52:15;0.30;;;0.30;;
37777;SDS011;23615;51.506;7.678;2022-08-07T01:54:42;0.30;;;0.30;;
37777;SDS011;23615;51.506;7.678;2022-08-07T01:57:12;1.65;;;0.40;;
37777;SDS011;23615;51.506;7.678;2022-08-07T01:59:45;0.45;;;0.32;;
37777;SDS011;23615;51.506;7.678;2022-08-07T02:02:28;0.38;;;0.38;;
37777;SDS011;23615;51.506;7.678;2022-08-07T02:04:58;0.50;;;0.40;;
37777;SDS011;23615;51.506;7.678;2022-08-07T02:07:29;1.45;;;0.30;;
37777;SDS011;23615;51.506;7.678;2022-08-07T02:09:59;0.20;;;0.20;;
37777;SDS011;23615;51.506;7.678;2022-08-07T02:12:25;1.25;;;0.50;;
37777;SDS011;23615;51.506;7.678;2022-08-07T02:14:55;0.30;;;0.30;;
37777;SDS011;23615;51.506;7.678;2022-08-07T02:17:21;1.08;;;0.50;;
37777;SDS011;23615;51.506;7.678;2022-08-07T02:19:48;1.30;;;0.55;;
37777;SDS011;23615;51.506;7.678;2022-08-07T02:22:14;0.50;;;0.38;;
37777;SDS011;23615;51.506;7.678;2022-08-07T02:24:42;1.50;;;0.40;;
37777;SDS011;23615;51.506;7.678;2022-08-07T02:27:08;0.57;;;0.40;;
37777;SDS011;23615;51.506;7.678;2022-08-07T02:29:36;0.73;;;0.60;;
37777;SDS011;23615;51.506;7.678;2022-08-07T02:32:03;1.50;;;0.73;;
37777;SDS011;23615;51.506;7.678;2022-08-07T02:34:30;0.60;;;0.60;;
37777;SDS011;23615;51.506;7.678;2022-08-07T02:36:57;0.80;;;0.80;;
37777;SDS011;23615;51.506;7.678;2022-08-07T02:39:25;0.80;;;0.70;;
37777;SDS011;23615;51.506;7.678;2022-08-07T02:41:52;0.63;;;0.63;;
37777;SDS011;23615;51.506;7.678;2022-08-07T02:44:18;0.90;;;0.50;;
37777;SDS011;23615;51.506;7.678;2022-08-07T02:46:47;0.40;;;0.40;;
37777;SDS011;23615;51.506;7.678;2022-08-07T02:49:14;0.60;;;0.60;;
37777;SDS011;23615;51.506;7.678;2022-08-07T02:51:40;0.80;;;0.60;;
37777;SDS011;23615;51.506;7.678;2022-08-07T02:54:08;0.45;;;0.45;;
37777;SDS011;23615;51.506;7.678;2022-08-07T02:56:35;0.65;;;0.65;;
37777;SDS011;23615;51.506;7.678;2022-08-07T02:59:03;0.73;;;0.73;;
37777;SDS011;23615;51.506;7.678;2022-08-07T03:01:38;0.40;;;0.40;;
37777;SDS011;23615;51.506;7.678;2022-08-07T03:04:06;0.33;;;0.33;;
37777;SDS011;23615;51.506;7.678;2022-08-07T03:06:33;0.40;;;0.40;;
37777;SDS011;23615;51.506;7.678;2022-08-07T03:09:01;0.90;;;0.50;;
37777;SDS011;23615;51.506;7.678;2022-08-07T03:11:29;0.40;;;0.40;;
37777;SDS011;23615;51.506;7.678;2022-08-07T03:13:55;0.35;;;0.35;;
37777;SDS011;23615;51.506;7.678;2022-08-07T03:16:21;0.90;;;0.22;;
37777;SDS011;23615;51.506;7.678;2022-08-07T03:18:48;0.60;;;0.50;;
37777;SDS011;23615;51.506;7.678;2022-08-07T03:21:13;0.80;;;0.40;;
37777;SDS011;23615;51.506;7.678;2022-08-07T03:23:40;0.45;;;0.40;;
37777;SDS011;23615;51.506;7.678;2022-08-07T03:26:06;0.73;;;0.40;;
37777;SDS011;23615;51.506;7.678;2022-08-07T03:28:34;0.80;;;0.20;;
37777;SDS011;23615;51.506;7.678;2022-08-07T03:31:00;0.50;;;0.50;;
37777;SDS011;23615;51.506;7.678;2022-08-07T03:33:43;0.30;;;0.30;;
37777;SDS011;23615;51.506;7.678;2022-08-07T03:36:11;0.50;;;0.40;;
37777;SDS011;23615;51.506;7.678;2022-08-07T03:38:40;0.20;;;0.20;;
37777;SDS011;23615;51.506;7.678;2022-08-07T03:41:08;0.22;;;0.22;;
37777;SDS011;23615;51.506;7.678;2022-08-07T03:43:34;0.50;;;0.30;;
37777;SDS011;23615;51.506;7.678;2022-08-07T03:46:02;0.57;;;0.30;;
37777;SDS011;23615;51.506;7.678;2022-08-07T03:48:29;0.30;;;0.30;;
37777;SDS011;23615;51.506;7.678;2022-08-07T03:50:56;0.30;;;0.30;;
37777;SDS011;23615;51.506;7.678;2022-08-07T03:53:21;0.73;;;0.35;;
37777;SDS011;23615;51.506;7.678;2022-08-07T03:55:47;0.63;;;0.63;;
37777;SDS011;23615;51.506;7.678;2022-08-07T03:58:15;0.80;;;0.30;;
37777;SDS011;23615;51.506;7.678;2022-08-07T04:00:42;0.35;;;0.22;;
37777;SDS011;23615;51.506;7.678;2022-08-07T04:03:10;0.30;;;0.30;;
37777;SDS011;23615;51.506;7.678;2022-08-07T04:05:36;1.08;;;0.40;;
37777;SDS011;23615;51.506;7.678;2022-08-07T04:08:02;1.40;;;0.30;;
37777;SDS011;23615;51.506;7.678;2022-08-07T04:10:28;0.50;;;0.40;;
37777;SDS011;23615;51.506;7.678;2022-08-07T04:12:54;0.52;;;0.43;;
37777;SDS011;23615;51.506;7.678;2022-08-07T04:15:19;0.82;;;0.40;;
37777;SDS011;23615;51.506;7.678;2022-08-07T04:17:45;0.90;;;0.43;;
37777;SDS011;23615;51.506;7.678;2022-08-07T04:20:11;0.38;;;0.32;;
37777;SDS011;23615;51.506;7.678;2022-08-07T04:22:39;2.75;;;0.40;;
37777;SDS011;23615;51.506;7.678;2022-08-07T04:25:04;0.65;;;0.30;;
37777;SDS011;23615;51.506;7.678;2022-08-07T04:27:30;1.95;;;0.43;;
37777;SDS011;23615;51.506;7.678;2022-08-07T04:29:55;0.47;;;0.38;;
37777;SDS011;23615;51.506;7.678;2022-08-07T04:32:21;2.15;;;0.47;;
37777;SDS011;23615;51.506;7.678;2022-08-07T04:34:47;0.43;;;0.43;;
37777;SDS011;23615;51.506;7.678;2022-08-07T04:37:14;2.75;;;0.80;;
37777;SDS011;23615;51.506;7.678;2022-08-07T04:39:40;0.40;;;0.30;;
37777;SDS011;23615;51.506;7.678;2022-08-07T04:42:06;1.38;;;0.60;;
37777;SDS011;23615;51.506;7.678;2022-08-07T04:44:31;0.85;;;0.30;;
37777;SDS011;23615;51.506;7.678;2022-08-07T04:49:46;0.40;;;0.22;;
37777;SDS011;23615;51.506;7.678;2022-08-07T04:52:27;0.30;;;0.30;;
37777;SDS011;23615;51.506;7.678;2022-08-07T04:57:45;1.02;;;0.50;;
37777;SDS011;23615;51.506;7.678;2022-08-07T05:00:16;1.90;;;0.40;;
37777;SDS011;23615;51.506;7.678;2022-08-07T05:05:50;0.95;;;0.40;;
37777;SDS011;23615;51.506;7.678;2022-08-07T05:08:25;0.60;;;0.55;;
37777;SDS011;23615;51.506;7.678;2022-08-07T05:10:58;0.70;;;0.43;;
37777;SDS011;23615;51.506;7.678;2022-08-07T05:13:29;0.32;;;0.20;;
37777;SDS011;23615;51.506;7.678;2022-08-07T05:16:00;1.38;;;0.40;;
37777;SDS011;23615;51.506;7.678;2022-08-07T05:18:31;0.85;;;0.43;;
37777;SDS011;23615;51.506;7.678;2022-08-07T05:21:01;1.67;;;0.40;;
37777;SDS011;23615;51.506;7.678;2022-08-07T05:23:32;0.40;;;0.40;;
37777;SDS011;23615;51.506;7.678;2022-08-07T05:26:03;0.50;;;0.47;;
37777;SDS011;23615;51.506;7.678;2022-08-07T05:28:30;0.45;;;0.40;;
37777;SDS011;23615;51.506;7.678;2022-08-07T05:30:57;0.40;;;0.35;;
37777;SDS011;23615;51.506;7.678;2022-08-07T05:33:23;0.73;;;0.40;;
37777;SDS011;23615;51.506;7.678;2022-08-07T05:35:51;0.40;;;0.30;;
37777;SDS011;23615;51.506;7.678;2022-08-07T05:38:19;0.38;;;0.25;;
37777;SDS011;23615;51.506;7.678;2022-08-07T05:40:46;1.05;;;0.30;;
37777;SDS011;23615;51.506;7.678;2022-08-07T05:43:11;1.05;;;0.85;;
37777;SDS011;23615;51.506;7.678;2022-08-07T05:45:38;1.75;;;0.38;;
37777;SDS011;23615;51.506;7.678;2022-08-07T05:48:04;1.10;;;0.50;;
37777;SDS011;23615;51.506;7.678;2022-08-07T05:50:31;1.08;;;0.40;;
37777;SDS011;23615;51.506;7.678;2022-08-07T05:52:58;0.35;;;0.35;;
37777;SDS011;23615;51.506;7.678;2022-08-07T05:55:24;0.43;;;0.30;;
37777;SDS011;23615;51.506;7.678;2022-08-07T05:57:50;0.85;;;0.35;;
37777;SDS011;23615;51.506;7.678;2022-08-07T06:00:16;1.17;;;0.50;;
37777;SDS011;23615;51.506;7.678;2022-08-07T06:02:44;0.25;;;0.25;;
37777;SDS011;23615;51.506;7.678;2022-08-07T06:05:13;0.50;;;0.30;;
37777;SDS011;23615;51.506;7.678;2022-08-07T06:07:39;0.20;;;0.20;;
37777;SDS011;23615;51.506;7.678;2022-08-07T06:10:05;1.48;;;0.50;;
37777;SDS011;23615;51.506;7.678;2022-08-07T06:12:33;1.50;;;0.30;;
37777;SDS011;23615;51.506;7.678;2022-08-07T06:14:59;0.52;;;0.30;;
37777;SDS011;23615;51.506;7.678;2022-08-07T06:17:25;0.93;;;0.30;;
37777;SDS011;23615;51.506;7.678;2022-08-07T06:19:51;1.27;;;0.20;;
37777;SDS011;23615;51.506;7.678;2022-08-07T06:22:17;0.30;;;0.30;;
37777;SDS011;23615;51.506;7.678;2022-08-07T06:24:44;0.30;;;0.30;;
37777;SDS011;23615;51.506;7.678;2022-08-07T06:27:09;2.60;;;0.30;;
37777;SDS011;23615;51.506;7.678;2022-08-07T06:29:35;1.85;;;0.30;;
37777;SDS011;23615;51.506;7.678;2022-08-07T06:32:00;0.52;;;0.20;;
37777;SDS011;23615;51.506;7.678;2022-08-07T06:34:26;0.20;;;0.20;;
37777;SDS011;23615;51.506;7.678;2022-08-07T06:36:52;0.75;;;0.30;;
37777;SDS011;23615;51.506;7.678;2022-08-07T06:39:18;0.20;;;0.20;;
37777;SDS011;23615;51.506;7.678;2022-08-07T06:41:45;0.65;;;0.40;;
37777;SDS011;23615;51.506;7.678;2022-08-07T06:44:13;0.60;;;0.20;;
37777;SDS011;23615;51.506;7.678;2022-08-07T06:46:40;1.45;;;0.98;;
37777;SDS011;23615;51.506;7.678;2022-08-07T06:49:06;0.30;;;0.30;;
37777;SDS011;23615;51.506;7.678;2022-08-07T06:51:32;0.17;;;0.10;;
37777;SDS011;23615;51.506;7.678;2022-08-07T06:53:59;0.55;;;0.20;;
37777;SDS011;23615;51.506;7.678;2022-08-07T06:56:31;0.20;;;0.10;;
37777;SDS011;23615;51.506;7.678;2022-08-07T06:59:17;0.50;;;0.20;;
37777;SDS011;23615;51.506;7.678;2022-08-07T07:01:46;0.10;;;0.10;;
37777;SDS011;23615;51.506;7.678;2022-08-07T07:04:12;0.10;;;0.10;;
37777;SDS011;23615;51.506;7.678;2022-08-07T07:06:38;0.10;;;0.10;;
37777;SDS011;23615;51.506;7.678;2022-08-07T07:09:20;0.40;;;0.03;;
37777;SDS011;23615;51.506;7.678;2022-08-07T07:14:36;0.57;;;0.10;;
37777;SDS011;23615;51.506;7.678;2022-08-07T07:17:14;1.35;;;0.10;;
37777;SDS011;23615;51.506;7.678;2022-08-07T07:19:49;0.45;;;0.10;;
37777;SDS011;23615;51.506;7.678;2022-08-07T07:22:17;0.90;;;0.30;;
37777;SDS011;23615;51.506;7.678;2022-08-07T07:24:43;1.40;;;0.47;;
37777;SDS011;23615;51.506;7.678;2022-08-07T07:27:10;1.50;;;0.20;;
37777;SDS011;23615;51.506;7.678;2022-08-07T07:29:42;0.10;;;0.10;;
37777;SDS011;23615;51.506;7.678;2022-08-07T07:32:12;0.25;;;0.10;;
37777;SDS011;23615;51.506;7.678;2022-08-07T07:34:39;0.60;;;0.00;;
37777;SDS011;23615;51.506;7.678;2022-08-07T07:37:09;0.80;;;0.10;;
37777;SDS011;23615;51.506;7.678;2022-08-07T07:39:37;0.40;;;0.10;;
37777;SDS011;23615;51.506;7.678;2022-08-07T07:42:04;0.35;;;0.10;;
37777;SDS011;23615;51.506;7.678;2022-08-07T07:44:31;0.25;;;0.10;;
37777;SDS011;23615;51.506;7.678;2022-08-07T07:46:58;0.50;;;0.10;;
37777;SDS011;23615;51.506;7.678;2022-08-07T07:49:26;1.35;;;0.20;;
37777;SDS011;23615;51.506;7.678;2022-08-07T07:51:52;0.30;;;0.15;;
37777;SDS011;23615;51.506;7.678;2022-08-07T07:54:21;0.52;;;0.13;;
37777;SDS011;23615;51.506;7.678;2022-08-07T07:56:48;0.73;;;0.10;;
37777;SDS011;23615;51.506;7.678;2022-08-07T07:59:16;0.20;;;0.10;;
37777;SDS011;23615;51.506;7.678;2022-08-07T08:01:44;0.80;;;0.20;;
37777;SDS011;23615;51.506;7.678;2022-08-07T08:04:11;0.25;;;0.10;;
37777;SDS011;23615;51.506;7.678;2022-08-07T08:06:39;0.63;;;0.10;;
37777;SDS011;23615;51.506;7.678;2022-08-07T08:09:08;1.00;;;0.10;;
37777;SDS011;23615;51.506;7.678;2022-08-07T08:11:34;1.20;;;0.10;;
37777;SDS011;23615;51.506;7.678;2022-08-07T08:14:00;0.22;;;0.10;;
37777;SDS011;23615;51.506;7.678;2022-08-07T08:16:28;0.00;;;0.00;;
37777;SDS011;23615;51.506;7.678;2022-08-07T08:18:58;0.10;;;0.00;;
37777;SDS011;23615;51.506;7.678;2022-08-07T08:21:24;0.35;;;0.00;;
37777;SDS011;23615;51.506;7.678;2022-08-07T08:24:09;0.17;;;0.00;;
37777;SDS011;23615;51.506;7.678;2022-08-07T08:26:54;0.03;;;0.03;;
37777;SDS011;23615;51.506;7.678;2022-08-07T08:29:30;1.70;;;0.10;;
37777;SDS011;23615;51.506;7.678;2022-08-07T08:32:01;0.30;;;0.05;;
37777;SDS011;23615;51.506;7.678;2022-08-07T08:34:28;0.20;;;0.08;;
37777;SDS011;23615;51.506;7.678;2022-08-07T08:36:55;0.90;;;0.00;;
37777;SDS011;23615;51.506;7.678;2022-08-07T08:39:22;0.00;;;0.00;;
37777;SDS011;23615;51.506;7.678;2022-08-07T08:41:56;0.00;;;0.00;;
37777;SDS011;23615;51.506;7.678;2022-08-07T08:44:29;0.17;;;0.00;;
37777;SDS011;23615;51.506;7.678;2022-08-07T08:47:11;0.50;;;0.10;;
37777;SDS011;23615;51.506;7.678;2022-08-07T08:50:08;0.75;;;0.10;;
37777;SDS011;23615;51.506;7.678;2022-08-07T08:52:45;0.10;;;0.00;;
37777;SDS011;23615;51.506;7.678;2022-08-07T08:55:22;1.42;;;0.17;;
37777;SDS011;23615;51.506;7.678;2022-08-07T09:00:50;0.30;;;0.00;;
37777;SDS011;23615;51.506;7.678;2022-08-07T09:03:24;0.70;;;0.00;;
37777;SDS011;23615;51.506;7.678;2022-08-07T09:06:17;0.20;;;0.00;;
37777;SDS011;23615;51.506;7.678;2022-08-07T09:09:02;0.30;;;0.00;;
37777;SDS011;23615;51.506;7.678;2022-08-07T09:11:39;0.10;;;0.00;;
37777;SDS011;23615;51.506;7.678;2022-08-07T09:14:10;0.20;;;0.00;;
37777;SDS011;23615;51.506;7.678;2022-08-07T09:16:47;0.40;;;0.10;;
37777;SDS011;23615;51.506;7.678;2022-08-07T09:22:26;0.40;;;0.10;;
37777;SDS011;23615;51.506;7.678;2022-08-07T09:30:06;0.32;;;0.00;;
37777;SDS011;23615;51.506;7.678;2022-08-07T09:35:30;1.13;;;0.00;;
37777;SDS011;23615;51.506;7.678;2022-08-07T09:43:50;0.00;;;0.00;;
37777;SDS011;23615;51.506;7.678;2022-08-07T09:46:55;0.30;;;0.10;;
37777;SDS011;23615;51.506;7.678;2022-08-07T09:52:47;0.45;;;0.00;;
37777;SDS011;23615;51.506;7.678;2022-08-07T09:55:17;0.17;;;0.00;;
37777;SDS011;23615;51.506;7.678;2022-08-07T10:03:55;0.10;;;0.00;;
37777;SDS011;23615;51.506;7.678;2022-08-07T10:09:45;0.13;;;0.00;;
37777;SDS011;23615;51.506;7.678;2022-08-07T10:12:46;0.00;;;0.00;;
37777;SDS011;23615;51.506;7.678;2022-08-07T10:15:40;1.17;;;0.00;;
37777;SDS011;23615;51.506;7.678;2022-08-07T10:38:30;1.00;;;0.20;;
37777;SDS011;23615;51.506;7.678;2022-08-07T10:44:05;0.57;;;0.00;;
37777;SDS011;23615;51.506;7.678;2022-08-07T10:46:37;0.80;;;0.00;;
37777;SDS011;23615;51.506;7.678;2022-08-07T10:49:12;1.10;;;0.05;;
37777;SDS011;23615;51.506;7.678;2022-08-07T10:52:04;0.00;;;0.00;;
37777;SDS011;23615;51.506;7.678;2022-08-07T10:54:43;0.82;;;0.10;;
37777;SDS011;23615;51.506;7.678;2022-08-07T11:00:10;0.60;;;0.10;;
37777;SDS011;23615;51.506;7.678;2022-08-07T11:02:43;0.10;;;0.10;;
37777;SDS011;23615;51.506;7.678;2022-08-07T11:13:36;0.73;;;0.20;;
37777;SDS011;23615;51.506;7.678;2022-08-07T11:16:07;0.50;;;0.00;;
37777;SDS011;23615;51.506;7.678;2022-08-07T11:18:47;0.00;;;0.00;;
37777;SDS011;23615;51.506;7.678;2022-08-07T11:26:50;0.20;;;0.00;;
37777;SDS011;23615;51.506;7.678;2022-08-07T11:32:06;0.00;;;0.00;;
37777;SDS011;23615;51.506;7.678;2022-08-07T11:34:46;0.00;;;0.00;;
37777;SDS011;23615;51.506;7.678;2022-08-07T11:37:17;0.05;;;0.00;;
37777;SDS011;23615;51.506;7.678;2022-08-07T11:45:26;0.40;;;0.00;;
37777;SDS011;23615;51.506;7.678;2022-08-07T11:53:36;0.10;;;0.00;;
37777;SDS011;23615;51.506;7.678;2022-08-07T11:58:53;0.13;;;0.00;;
37777;SDS011;23615;51.506;7.678;2022-08-07T12:01:52;0.05;;;0.00;;
37777;SDS011;23615;51.506;7.678;2022-08-07T12:04:30;0.50;;;0.20;;
37777;SDS011;23615;51.506;7.678;2022-08-07T12:10:03;0.50;;;0.10;;
37777;SDS011;23615;51.506;7.678;2022-08-07T12:12:38;1.00;;;0.00;;
37777;SDS011;23615;51.506;7.678;2022-08-07T12:15:14;0.17;;;0.00;;
37777;SDS011;23615;51.506;7.678;2022-08-07T12:17:47;0.22;;;0.17;;
37777;SDS011;23615;51.506;7.678;2022-08-07T12:23:08;0.22;;;0.00;;
37777;SDS011;23615;51.506;7.678;2022-08-07T12:25:43;0.10;;;0.00;;
37777;SDS011;23615;51.506;7.678;2022-08-07T12:31:04;0.40;;;0.10;;
37777;SDS011;23615;51.506;7.678;2022-08-07T12:33:35;0.70;;;0.00;;
37777;SDS011;23615;51.506;7.678;2022-08-07T12:36:01;0.00;;;0.00;;
37777;SDS011;23615;51.506;7.678;2022-08-07T12:38:29;0.00;;;0.00;;
37777;SDS011;23615;51.506;7.678;2022-08-07T12:40:56;0.00;;;0.00;;
37777;SDS011;23615;51.506;7.678;2022-08-07T12:43:26;0.00;;;0.00;;
37777;SDS011;23615;51.506;7.678;2022-08-07T12:51:12;0.40;;;0.10;;
37777;SDS011;23615;51.506;7.678;2022-08-07T12:53:42;0.10;;;0.00;;
37777;SDS011;23615;51.506;7.678;2022-08-07T12:58:53;0.13;;;0.00;;
37777;SDS011;23615;51.506;7.678;2022-08-07T13:01:27;0.22;;;0.00;;
37777;SDS011;23615;51.506;7.678;2022-08-07T13:10:15;0.20;;;0.00;;
37777;SDS011;23615;51.506;7.678;2022-08-07T13:20:19;0.03;;;0.00;;
37777;SDS011;23615;51.506;7.678;2022-08-07T13:25:47;0.00;;;0.00;;
37777;SDS011;23615;51.506;7.678;2022-08-07T13:28:20;0.00;;;0.00;;
37777;SDS011;23615;51.506;7.678;2022-08-07T13:30:56;0.10;;;0.00;;
37777;SDS011;23615;51.506;7.678;2022-08-07T13:33:32;1.17;;;0.10;;
37777;SDS011;23615;51.506;7.678;2022-08-07T13:36:04;0.00;;;0.00;;
37777;SDS011;23615;51.506;7.678;2022-08-07T13:38:46;1.27;;;0.00;;
37777;SDS011;23615;51.506;7.678;2022-08-07T13:41:32;0.20;;;0.00;;
37777;SDS011;23615;51.506;7.678;2022-08-07T13:44:04;0.10;;;0.00;;
37777;SDS011;23615;51.506;7.678;2022-08-07T13:46:32;0.10;;;0.00;;
37777;SDS011;23615;51.506;7.678;2022-08-07T13:49:00;0.10;;;0.10;;
37777;SDS011;23615;51.506;7.678;2022-08-07T13:51:29;0.20;;;0.00;;
37777;SDS011;23615;51.506;7.678;2022-08-07T13:54:00;0.70;;;0.00;;
37777;SDS011;23615;51.506;7.678;2022-08-07T13:56:29;0.40;;;0.00;;
37777;SDS011;23615;51.506;7.678;2022-08-07T13:58:56;0.00;;;0.00;;
37777;SDS011;23615;51.506;7.678;2022-08-07T14:01:28;0.65;;;0.10;;
37777;SDS011;23615;51.506;7.678;2022-08-07T14:03:56;1.23;;;0.00;;
37777;SDS011;23615;51.506;7.678;2022-08-07T14:06:29;0.28;;;0.00;;
37777;SDS011;23615;51.506;7.678;2022-08-07T14:08:56;0.30;;;0.00;;
37777;SDS011;23615;51.506;7.678;2022-08-07T14:11:22;0.10;;;0.00;;
37777;SDS011;23615;51.506;7.678;2022-08-07T14:13:53;0.00;;;0.00;;
37777;SDS011;23615;51.506;7.678;2022-08-07T14:16:29;0.00;;;0.00;;
37777;SDS011;23615;51.506;7.678;2022-08-07T14:18:58;0.00;;;0.00;;
37777;SDS011;23615;51.506;7.678;2022-08-07T14:21:28;0.00;;;0.00;;
37777;SDS011;23615;51.506;7.678;2022-08-07T14:29:04;0.90;;;0.00;;
37777;SDS011;23615;51.506;7.678;2022-08-07T14:31:33;0.10;;;0.00;;
37777;SDS011;23615;51.506;7.678;2022-08-07T14:34:00;0.20;;;0.00;;
37777;SDS011;23615;51.506;7.678;2022-08-07T14:36:26;0.13;;;0.05;;
37777;SDS011;23615;51.506;7.678;2022-08-07T14:38:55;0.10;;;0.00;;
37777;SDS011;23615;51.506;7.678;2022-08-07T14:41:28;0.00;;;0.00;;
37777;SDS011;23615;51.506;7.678;2022-08-07T14:43:57;0.20;;;0.00;;
37777;SDS011;23615;51.506;7.678;2022-08-07T14:46:24;0.40;;;0.00;;
37777;SDS011;23615;51.506;7.678;2022-08-07T14:48:52;1.13;;;0.00;;
37777;SDS011;23615;51.506;7.678;2022-08-07T14:51:21;0.20;;;0.10;;
37777;SDS011;23615;51.506;7.678;2022-08-07T14:53:51;0.08;;;0.00;;
37777;SDS011;23615;51.506;7.678;2022-08-07T14:56:20;0.10;;;0.00;;
37777;SDS011;23615;51.506;7.678;2022-08-07T14:58:48;0.50;;;0.00;;
37777;SDS011;23615;51.506;7.678;2022-08-07T15:01:17;0.00;;;0.00;;
37777;SDS011;23615;51.506;7.678;2022-08-07T15:03:44;0.47;;;0.10;;
37777;SDS011;23615;51.506;7.678;2022-08-07T15:06:11;0.03;;;0.00;;
37777;SDS011;23615;51.506;7.678;2022-08-07T15:08:40;0.15;;;0.00;;
37777;SDS011;23615;51.506;7.678;2022-08-07T15:11:15;0.40;;;0.00;;
37777;SDS011;23615;51.506;7.678;2022-08-07T15:13:51;0.10;;;0.00;;
37777;SDS011;23615;51.506;7.678;2022-08-07T15:16:25;0.00;;;0.00;;
37777;SDS011;23615;51.506;7.678;2022-08-07T15:18:58;0.25;;;0.00;;
37777;SDS011;23615;51.506;7.678;2022-08-07T15:21:27;0.70;;;0.00;;
37777;SDS011;23615;51.506;7.678;2022-08-07T15:23:59;0.00;;;0.00;;
37777;SDS011;23615;51.506;7.678;2022-08-07T15:26:37;0.00;;;0.00;;
37777;SDS011;23615;51.506;7.678;2022-08-07T15:29:07;0.40;;;0.10;;
37777;SDS011;23615;51.506;7.678;2022-08-07T15:31:34;0.50;;;0.00;;
37777;SDS011;23615;51.506;7.678;2022-08-07T15:34:00;0.60;;;0.10;;
37777;SDS011;23615;51.506;7.678;2022-08-07T15:36:27;0.22;;;0.00;;
37777;SDS011;23615;51.506;7.678;2022-08-07T15:38:52;0.08;;;0.00;;
37777;SDS011;23615;51.506;7.678;2022-08-07T15:41:21;0.30;;;0.00;;
37777;SDS011;23615;51.506;7.678;2022-08-07T15:46:45;0.20;;;0.00;;
37777;SDS011;23615;51.506;7.678;2022-08-07T15:49:16;0.10;;;0.00;;
37777;SDS011;23615;51.506;7.678;2022-08-07T15:51:47;0.10;;;0.00;;
37777;SDS011;23615;51.506;7.678;2022-08-07T15:54:13;0.20;;;0.00;;
37777;SDS011;23615;51.506;7.678;2022-08-07T15:56:39;1.10;;;0.10;;
37777;SDS011;23615;51.506;7.678;2022-08-07T15:59:08;0.60;;;0.00;;
37777;SDS011;23615;51.506;7.678;2022-08-07T16:01:44;0.00;;;0.00;;
37777;SDS011;23615;51.506;7.678;2022-08-07T16:04:13;0.20;;;0.00;;
37777;SDS011;23615;51.506;7.678;2022-08-07T16:06:47;0.00;;;0.00;;
37777;SDS011;23615;51.506;7.678;2022-08-07T16:12:19;0.25;;;0.00;;
37777;SDS011;23615;51.506;7.678;2022-08-07T16:20:58;0.40;;;0.00;;
37777;SDS011;23615;51.506;7.678;2022-08-07T16:26:27;0.17;;;0.00;;
37777;SDS011;23615;51.506;7.678;2022-08-07T16:32:06;0.10;;;0.00;;
37777;SDS011;23615;51.506;7.678;2022-08-07T16:34:41;0.10;;;0.00;;
37777;SDS011;23615;51.506;7.678;2022-08-07T16:43:18;0.10;;;0.00;;
37777;SDS011;23615;51.506;7.678;2022-08-07T16:46:10;0.00;;;0.00;;
37777;SDS011;23615;51.506;7.678;2022-08-07T16:51:11;0.40;;;0.00;;
37777;SDS011;23615;51.506;7.678;2022-08-07T17:10:18;0.00;;;0.00;;
37777;SDS011;23615;51.506;7.678;2022-08-07T17:21:22;0.20;;;0.00;;
37777;SDS011;23615;51.506;7.678;2022-08-07T17:24:16;19.23;;;0.30;;
37777;SDS011;23615;51.506;7.678;2022-08-07T17:27:03;0.10;;;0.10;;
37777;SDS011;23615;51.506;7.678;2022-08-07T17:32:17;0.05;;;0.00;;
37777;SDS011;23615;51.506;7.678;2022-08-07T17:34:56;0.30;;;0.30;;
37777;SDS011;23615;51.506;7.678;2022-08-07T17:37:33;0.03;;;0.00;;
37777;SDS011;23615;51.506;7.678;2022-08-07T17:40:20;1.77;;;0.10;;
37777;SDS011;23615;51.506;7.678;2022-08-07T17:43:16;0.20;;;0.00;;
37777;SDS011;23615;51.506;7.678;2022-08-07T17:45:54;0.15;;;0.00;;
37777;SDS011;23615;51.506;7.678;2022-08-07T17:48:32;0.90;;;0.00;;
37777;SDS011;23615;51.506;7.678;2022-08-07T17:51:14;0.00;;;0.00;;
37777;SDS011;23615;51.506;7.678;2022-08-07T17:59:41;0.00;;;0.00;;
37777;SDS011;23615;51.506;7.678;2022-08-07T18:05:13;0.32;;;0.00;;
37777;SDS011;23615;51.506;7.678;2022-08-07T18:07:51;0.32;;;0.10;;
37777;SDS011;23615;51.506;7.678;2022-08-07T18:16:37;0.20;;;0.03;;
37777;SDS011;23615;51.506;7.678;2022-08-07T18:24:33;1.75;;;0.00;;
37777;SDS011;23615;51.506;7.678;2022-08-07T18:27:23;0.08;;;0.00;;
37777;SDS011;23615;51.506;7.678;2022-08-07T18:30:04;0.10;;;0.10;;
37777;SDS011;23615;51.506;7.678;2022-08-07T18:35:58;0.10;;;0.00;;
37777;SDS011;23615;51.506;7.678;2022-08-07T18:41:46;0.50;;;0.10;;
37777;SDS011;23615;51.506;7.678;2022-08-07T18:54:50;0.45;;;0.20;;
37777;SDS011;23615;51.506;7.678;2022-08-07T18:57:27;0.28;;;0.10;;